Forest, Washington
Current Conditions -  °F | °C
As of 4:55 PM on Saturday 25 Oct 2014 (Local Time) from KCLS Reporting Station
Broken Clouds Broken Clouds  
Wind Chill: 61°   Ceiling: 2500
Heat Index: 61°   Visibility: 10mi
Dew Point: 55°   Wind: 16mph
Humidity: 82%   Direction: 190°S
Pressure: 29.3"   Gusts: 26mph
Location:  46.6561°N, 122.993°W
Report Text: KCLS 252355Z AUTO 19014G23KT 10SM BKN025 BKN042 BKN049 16/13 A2930 RMK AO2
Loading
Personal Weather Stations






























Interactive Weather Map
Tropical Storm Tracking
New forecast layout! Learn more

10-Day Weather Forecast

Advertisements
Track Severe Weather on mobile